Terminal Aerodrome Forecast
Issued by NWS

Home | Current Version | Previous Version | Text Only | Print | Product List | Glossary On
Versions: 1 2 3 4 5 6 7 8 9 10 11 12 13 14 15 16 17 18 19 20
803
FTUS43 KJKL 150539
TAFSME
TAF
KSME 150539Z 1506/1606 20003KT P6SM SKC
     FM151000 20006KT P6SM SCT009
     FM151400 22010G20KT P6SM BKN025
     FM151800 23010G20KT P6SM VCSH BKN025
     FM152100 31010G20KT 3SM -SHRA BR OVC015
     FM160000 32008KT P6SM -SHRA OVC015=

USA.gov is the U.S. government's official web portal to all federal, state and local government web resources and services.